createdAt,value
2019-01-30T00:02:06.577Z,46.80
2019-01-30T00:04:38.885Z,46.70
2019-01-30T00:07:09.280Z,46.70
2019-01-30T00:09:39.658Z,46.70
2019-01-30T00:12:13.067Z,46.50
2019-01-30T00:14:43.444Z,46.60
2019-01-30T00:17:15.819Z,46.70
2019-01-30T00:19:46.132Z,46.90
2019-01-30T00:22:16.544Z,46.40
2019-01-30T00:24:50.472Z,46.50
2019-01-30T00:27:21.024Z,46.30
2019-01-30T00:30:03.916Z,46.40
2019-01-30T00:32:28.712Z,46.60
2019-01-30T00:35:00.330Z,46.30
2019-01-30T00:37:31.518Z,46.00
2019-01-30T00:40:02.385Z,46.00
2019-01-30T00:42:33.374Z,46.00
2019-01-30T00:45:04.875Z,45.80
2019-01-30T00:47:38.002Z,45.80
2019-01-30T00:50:10.843Z,45.80
2019-01-30T00:52:42.367Z,45.60
2019-01-30T00:55:13.207Z,45.50
2019-01-30T00:57:43.562Z,45.40
2019-01-30T01:00:17.727Z,45.30
2019-01-30T01:02:48.071Z,45.30
2019-01-30T01:05:18.466Z,45.30
2019-01-30T01:07:48.954Z,45.30
2019-01-30T01:10:21.386Z,44.80
2019-01-30T01:12:51.780Z,44.80
2019-01-30T01:15:23.680Z,44.90
2019-01-30T01:17:54.241Z,45.00
2019-01-30T01:20:24.953Z,44.70
2019-01-30T01:22:55.338Z,44.70
2019-01-30T01:25:27.680Z,44.70
2019-01-30T01:27:58.100Z,44.70
2019-01-30T01:30:29.188Z,44.50
2019-01-30T01:33:00.770Z,44.50
2019-01-30T01:35:32.240Z,44.40
2019-01-30T01:38:02.615Z,44.40
2019-01-30T01:40:33.043Z,44.50
2019-01-30T01:43:03.489Z,44.50
2019-01-30T01:45:33.845Z,44.40
2019-01-30T01:48:04.240Z,44.30
2019-01-30T01:50:36.149Z,44.30
2019-01-30T01:53:06.526Z,44.30
2019-01-30T01:55:36.946Z,44.30
2019-01-30T01:58:07.331Z,44.40
2019-01-30T02:00:37.696Z,44.20
2019-01-30T02:03:09.741Z,43.60
2019-01-30T02:05:40.265Z,43.90
2019-01-30T02:08:31.101Z,43.90
2019-01-30T02:11:02.109Z,44.00
2019-01-30T02:13:33.292Z,43.90
2019-01-30T02:16:04.341Z,43.80
2019-01-30T02:18:35.554Z,43.90
2019-01-30T02:21:06.588Z,43.70
2019-01-30T02:23:37.837Z,43.80
2019-01-30T02:26:08.766Z,43.70
2019-01-30T02:28:39.704Z,43.70
2019-01-30T02:31:10.656Z,43.60
2019-01-30T02:33:41.757Z,43.60
2019-01-30T02:36:12.686Z,43.50
2019-01-30T02:38:43.722Z,43.40
2019-01-30T02:41:14.628Z,43.30
2019-01-30T02:43:45.843Z,43.40
2019-01-30T02:46:17.021Z,43.30
2019-01-30T02:48:47.976Z,43.60
2019-01-30T02:51:19.251Z,43.30
2019-01-30T02:53:50.356Z,42.90
2019-01-30T02:56:21.483Z,43.00
2019-01-30T02:58:52.484Z,43.00
2019-01-30T03:01:23.792Z,43.00
2019-01-30T03:03:55.039Z,42.90
2019-01-30T03:06:26.346Z,43.00
2019-01-30T03:08:57.431Z,43.00
2019-01-30T03:11:28.750Z,42.80
2019-01-30T03:13:59.789Z,42.80
2019-01-30T03:16:31.167Z,42.90
2019-01-30T03:19:02.439Z,42.70
2019-01-30T03:21:33.546Z,42.80
2019-01-30T03:24:04.548Z,42.90
2019-01-30T03:26:35.721Z,42.90
2019-01-30T03:29:06.819Z,42.80
2019-01-30T03:31:37.777Z,42.70
2019-01-30T03:34:08.903Z,42.70
2019-01-30T03:36:39.944Z,42.70
2019-01-30T03:39:11.051Z,42.80
2019-01-30T03:41:42.035Z,42.50
2019-01-30T03:44:13.080Z,42.20
2019-01-30T03:46:44.229Z,42.30
2019-01-30T03:49:15.509Z,42.60
2019-01-30T03:51:46.741Z,42.60
2019-01-30T03:54:18.021Z,42.30
2019-01-30T03:56:49.183Z,42.20
2019-01-30T03:59:20.312Z,42.20
2019-01-30T04:01:51.428Z,42.30
2019-01-30T04:04:22.291Z,42.20
2019-01-30T04:06:53.400Z,42.30
2019-01-30T04:09:24.425Z,42.20
2019-01-30T04:11:55.415Z,42.20
2019-01-30T04:14:26.568Z,42.20
2019-01-30T04:16:57.684Z,42.00
2019-01-30T04:19:28.611Z,42.60
2019-01-30T04:22:00.047Z,41.90
2019-01-30T04:24:31.430Z,42.60
2019-01-30T04:27:02.891Z,42.00
2019-01-30T04:29:34.285Z,41.90
2019-01-30T04:32:05.327Z,41.80
2019-01-30T04:34:36.723Z,42.70
2019-01-30T04:37:07.754Z,41.90
2019-01-30T04:39:38.821Z,41.70
2019-01-30T04:42:10.068Z,41.40
2019-01-30T04:44:41.071Z,41.40
2019-01-30T04:47:12.308Z,41.60
2019-01-30T04:49:43.722Z,41.40
2019-01-30T04:52:14.715Z,41.50
2019-01-30T04:54:45.728Z,41.60
2019-01-30T04:57:16.691Z,41.50
2019-01-30T04:59:48.126Z,41.50
2019-01-30T05:02:19.207Z,41.50
2019-01-30T05:04:50.612Z,41.60
2019-01-30T05:07:22.031Z,41.60
2019-01-30T05:09:53.058Z,41.50
2019-01-30T05:12:24.119Z,41.30
2019-01-30T05:14:55.285Z,41.10
2019-01-30T05:17:26.457Z,41.20
2019-01-30T05:19:57.450Z,41.30
2019-01-30T05:22:28.675Z,41.20
2019-01-30T05:24:59.944Z,41.40
2019-01-30T05:27:31.038Z,41.40
2019-01-30T05:30:02.197Z,41.20
2019-01-30T05:32:33.244Z,41.00
2019-01-30T05:35:04.486Z,40.80
2019-01-30T05:37:35.612Z,41.00
2019-01-30T05:40:08.182Z,41.00
2019-01-30T05:42:39.528Z,41.20
2019-01-30T05:45:12.644Z,41.00
2019-01-30T05:47:43.593Z,40.90
2019-01-30T05:50:14.687Z,40.90
2019-01-30T05:52:45.664Z,40.90
2019-01-30T05:55:16.906Z,40.80
2019-01-30T05:57:47.782Z,40.90
2019-01-30T06:00:27.527Z,40.80
2019-01-30T06:02:58.604Z,41.00
2019-01-30T06:05:29.993Z,41.00
2019-01-30T06:08:01.182Z,40.90
2019-01-30T06:10:32.243Z,41.00
2019-01-30T06:13:03.517Z,41.00
2019-01-30T06:15:34.778Z,40.90
2019-01-30T06:18:05.965Z,41.20
2019-01-30T06:20:36.949Z,42.00
2019-01-30T06:23:07.982Z,42.40
2019-01-30T06:25:39.029Z,47.00
2019-01-30T06:28:10.164Z,47.30
2019-01-30T06:30:41.107Z,46.90
2019-01-30T06:33:12.303Z,47.30
2019-01-30T06:35:43.595Z,47.50
2019-01-30T06:38:14.680Z,47.40
2019-01-30T06:40:45.742Z,47.10
2019-01-30T06:43:16.794Z,45.90
2019-01-30T06:45:48.043Z,46.70
2019-01-30T06:48:19.262Z,47.20
2019-01-30T06:50:50.519Z,46.60
2019-01-30T06:53:21.658Z,47.40
2019-01-30T06:55:52.916Z,46.50
2019-01-30T06:58:23.897Z,46.40
2019-01-30T07:00:54.985Z,46.50
2019-01-30T07:03:25.982Z,46.60
2019-01-30T07:05:56.923Z,46.40
2019-01-30T07:08:28.017Z,46.40
2019-01-30T07:10:59.035Z,46.50
2019-01-30T07:13:30.198Z,46.10
2019-01-30T07:16:01.322Z,45.70
2019-01-30T07:18:32.407Z,45.60
2019-01-30T07:21:03.574Z,44.50
2019-01-30T07:23:34.804Z,44.30
2019-01-30T07:26:06.064Z,44.30
2019-01-30T07:28:37.289Z,44.30
2019-01-30T07:31:08.355Z,44.40
2019-01-30T07:33:39.470Z,44.40
2019-01-30T07:36:10.543Z,44.30
2019-01-30T07:38:41.539Z,44.50
2019-01-30T07:41:12.567Z,44.90
2019-01-30T07:43:43.879Z,44.70
2019-01-30T07:46:15.010Z,44.80
2019-01-30T07:48:46.101Z,45.40
2019-01-30T07:51:17.231Z,45.40
2019-01-30T07:53:48.245Z,45.50
2019-01-30T07:56:19.242Z,45.70
2019-01-30T07:58:50.144Z,45.90
2019-01-30T08:01:22.118Z,46.10
2019-01-30T08:03:53.685Z,46.30
2019-01-30T08:06:24.563Z,46.10
2019-01-30T08:08:55.599Z,46.00
2019-01-30T08:11:26.677Z,46.10
2019-01-30T08:13:58.114Z,45.80
2019-01-30T08:16:29.451Z,45.90
2019-01-30T08:19:00.954Z,46.00
2019-01-30T08:21:32.526Z,46.10
2019-01-30T08:24:04.267Z,46.80
2019-01-30T08:26:36.074Z,46.60
2019-01-30T08:29:07.846Z,46.50
2019-01-30T08:31:39.790Z,46.20
2019-01-30T08:34:11.261Z,46.00
2019-01-30T08:36:42.565Z,47.10
2019-01-30T08:39:13.997Z,47.10
2019-01-30T08:41:45.404Z,46.80
2019-01-30T08:44:16.928Z,46.50
2019-01-30T08:46:48.273Z,46.30
2019-01-30T08:49:19.669Z,46.10
2019-01-30T08:51:51.051Z,46.00
2019-01-30T08:54:22.730Z,46.00
2019-01-30T08:56:54.688Z,46.10
2019-01-30T08:59:26.006Z,46.00
2019-01-30T09:01:58.496Z,45.90
2019-01-30T09:04:30.088Z,45.70
2019-01-30T09:07:01.537Z,45.70
2019-01-30T09:09:32.780Z,45.70
2019-01-30T09:12:03.969Z,45.60
2019-01-30T09:14:35.657Z,45.60
2019-01-30T09:17:08.742Z,45.60
2019-01-30T09:19:40.114Z,45.70
2019-01-30T09:22:11.564Z,45.60
2019-01-30T09:24:42.721Z,45.60
2019-01-30T09:27:14.163Z,45.60
2019-01-30T09:29:45.557Z,45.50
2019-01-30T09:32:16.653Z,45.60
2019-01-30T09:34:48.067Z,45.70
2019-01-30T09:37:19.095Z,45.70
2019-01-30T09:39:50.146Z,45.70
2019-01-30T09:42:21.170Z,45.80
2019-01-30T09:44:52.469Z,45.90
2019-01-30T09:47:23.710Z,45.80
2019-01-30T09:49:54.566Z,45.80
2019-01-30T09:52:27.032Z,45.90
2019-01-30T09:54:58.577Z,46.00
2019-01-30T09:57:29.629Z,46.40
2019-01-30T10:00:00.562Z,45.90
2019-01-30T10:02:31.747Z,45.90
2019-01-30T10:05:03.064Z,45.90
2019-01-30T10:07:34.116Z,45.80
2019-01-30T10:10:06.067Z,45.80
2019-01-30T10:12:36.886Z,45.80
2019-01-30T10:15:09.302Z,45.90
2019-01-30T10:17:40.667Z,45.90
2019-01-30T10:20:16.553Z,45.90
2019-01-30T10:22:47.704Z,45.90
2019-01-30T10:25:18.841Z,45.90
2019-01-30T10:27:50.021Z,45.80
2019-01-30T10:30:25.046Z,45.70
2019-01-30T10:32:56.200Z,45.80
2019-01-30T10:35:27.303Z,45.90
2019-01-30T10:37:58.412Z,45.80
2019-01-30T10:40:29.374Z,46.40
2019-01-30T10:43:00.493Z,45.80
2019-01-30T10:45:31.443Z,45.60
2019-01-30T10:48:02.703Z,45.50
2019-01-30T10:50:33.949Z,45.50
2019-01-30T10:53:05.349Z,45.40
2019-01-30T10:55:36.827Z,45.30
2019-01-30T10:58:11.655Z,45.40
2019-01-30T11:00:48.831Z,45.40
2019-01-30T11:03:20.001Z,45.50
2019-01-30T11:05:51.147Z,45.60
2019-01-30T11:08:22.250Z,45.50
2019-01-30T11:10:53.309Z,45.60
2019-01-30T11:13:24.238Z,45.70
2019-01-30T11:15:55.382Z,45.80
2019-01-30T11:18:26.312Z,45.90
2019-01-30T11:20:57.322Z,45.90
2019-01-30T11:23:28.562Z,45.90
2019-01-30T11:25:59.662Z,45.90
2019-01-30T11:28:30.689Z,45.90
2019-01-30T11:31:01.441Z,48.00
2019-01-30T11:33:32.348Z,46.70
2019-01-30T11:36:03.389Z,46.60
2019-01-30T11:38:34.683Z,46.50
2019-01-30T11:41:05.799Z,47.40
2019-01-30T11:43:37.129Z,46.40
2019-01-30T11:46:08.371Z,46.40
2019-01-30T11:48:39.530Z,46.40
2019-01-30T11:51:10.651Z,46.40
2019-01-30T11:53:41.641Z,46.40
2019-01-30T11:56:12.653Z,46.30
2019-01-30T11:58:43.659Z,46.40
2019-01-30T12:01:15.576Z,46.80
2019-01-30T12:03:46.838Z,46.30
2019-01-30T12:06:17.949Z,46.60
2019-01-30T12:08:48.943Z,46.90
2019-01-30T12:11:20.025Z,46.90
2019-01-30T12:13:51.111Z,46.50
2019-01-30T12:16:22.307Z,46.50
2019-01-30T12:18:53.245Z,46.50
2019-01-30T12:21:24.264Z,46.50
2019-01-30T12:23:55.374Z,46.50
2019-01-30T12:26:26.615Z,46.40
2019-01-30T12:28:57.529Z,46.50
2019-01-30T12:31:28.441Z,46.50
2019-01-30T12:33:59.803Z,46.50
2019-01-30T12:36:31.007Z,46.50
2019-01-30T12:39:02.148Z,46.40
2019-01-30T12:41:35.845Z,46.30
2019-01-30T12:44:08.690Z,46.70
2019-01-30T12:46:41.583Z,46.10
2019-01-30T12:49:14.756Z,46.20
2019-01-30T12:51:48.527Z,46.30
2019-01-30T12:54:19.556Z,46.30
2019-01-30T12:56:50.536Z,46.40
2019-01-30T12:59:21.644Z,47.70
2019-01-30T13:01:52.564Z,48.10
2019-01-30T13:04:23.652Z,48.00
2019-01-30T13:06:54.763Z,47.30
2019-01-30T13:09:25.844Z,47.20
2019-01-30T13:12:02.280Z,47.30
2019-01-30T13:14:34.207Z,47.10
2019-01-30T13:17:07.259Z,47.30
2019-01-30T13:19:38.707Z,47.20
2019-01-30T13:22:10.048Z,47.00
2019-01-30T13:24:41.447Z,46.90
2019-01-30T13:27:13.112Z,46.30
2019-01-30T13:29:44.596Z,46.40
2019-01-30T13:32:15.943Z,46.80
2019-01-30T13:34:49.043Z,46.90
2019-01-30T13:37:19.795Z,47.00
2019-01-30T13:39:50.682Z,47.20
2019-01-30T13:42:21.906Z,47.30
2019-01-30T13:44:53.202Z,47.40
2019-01-30T13:47:24.378Z,47.40
2019-01-30T13:49:55.399Z,47.50
2019-01-30T13:52:26.821Z,47.50
2019-01-30T13:54:57.819Z,47.30
2019-01-30T13:57:29.200Z,47.00
2019-01-30T14:00:03.769Z,46.90
2019-01-30T14:02:34.844Z,46.90
2019-01-30T14:05:06.748Z,46.80
2019-01-30T14:07:37.945Z,46.70
2019-01-30T14:10:09.636Z,46.70
2019-01-30T14:12:41.453Z,46.60
2019-01-30T14:15:16.020Z,46.50
2019-01-30T14:17:47.323Z,46.40
2019-01-30T14:20:18.839Z,46.20
2019-01-30T14:22:50.366Z,46.10
2019-01-30T14:25:21.428Z,46.20
2019-01-30T14:27:52.664Z,46.10
2019-01-30T14:30:33.050Z,46.10
2019-01-30T14:33:04.299Z,46.20
2019-01-30T14:35:41.624Z,46.20
2019-01-30T14:38:13.052Z,46.20
2019-01-30T14:40:44.987Z,46.30
2019-01-30T14:43:17.650Z,46.30
2019-01-30T14:45:49.261Z,46.40
2019-01-30T14:48:20.508Z,46.40
2019-01-30T14:50:53.041Z,46.50
2019-01-30T14:53:24.326Z,46.40
2019-01-30T14:55:55.553Z,46.30
2019-01-30T14:58:27.513Z,46.40
2019-01-30T15:00:58.943Z,46.40
2019-01-30T15:03:30.844Z,46.40
2019-01-30T15:06:01.896Z,46.40
2019-01-30T15:08:33.071Z,46.50
2019-01-30T15:11:04.113Z,46.50
2019-01-30T15:13:35.403Z,46.50
2019-01-30T15:16:06.552Z,46.50
2019-01-30T15:18:37.722Z,46.40
2019-01-30T15:21:08.932Z,46.50
2019-01-30T15:23:40.071Z,46.70
2019-01-30T15:26:11.115Z,46.90
2019-01-30T15:28:42.106Z,47.30
2019-01-30T15:31:13.139Z,49.60
2019-01-30T15:33:44.230Z,48.70
2019-01-30T15:36:16.965Z,48.90
2019-01-30T15:38:48.235Z,48.40
2019-01-30T15:41:19.597Z,47.70
2019-01-30T15:43:51.011Z,47.80
2019-01-30T15:46:22.924Z,47.30
2019-01-30T15:48:54.664Z,46.60
2019-01-30T15:51:46.434Z,46.70
2019-01-30T15:54:18.896Z,46.90
2019-01-30T15:56:50.779Z,47.00
2019-01-30T15:59:22.757Z,46.90
2019-01-30T16:01:54.148Z,47.10
2019-01-30T16:04:28.969Z,47.50
2019-01-30T16:07:00.942Z,47.30
2019-01-30T16:09:32.607Z,47.00
2019-01-30T16:12:04.382Z,47.00
2019-01-30T16:14:35.921Z,47.00
2019-01-30T16:17:08.449Z,47.00
2019-01-30T16:19:39.880Z,46.90
2019-01-30T16:22:11.793Z,47.00
2019-01-30T16:24:47.387Z,46.80
2019-01-30T16:27:19.365Z,46.80
2019-01-30T16:29:50.711Z,47.00
2019-01-30T16:32:22.000Z,46.80
2019-01-30T16:34:53.754Z,46.90
2019-01-30T16:37:25.338Z,46.90
2019-01-30T16:39:56.877Z,47.00
2019-01-30T16:42:28.378Z,47.00
2019-01-30T16:45:02.405Z,47.00
2019-01-30T16:47:32.796Z,48.00
2019-01-30T16:50:09.645Z,47.50
2019-01-30T16:52:41.126Z,47.90
2019-01-30T16:55:12.820Z,47.90
2019-01-30T16:57:44.007Z,49.20
2019-01-30T17:00:26.977Z,49.10
2019-01-30T17:02:58.701Z,48.20
2019-01-30T17:05:30.506Z,47.90
2019-01-30T17:08:02.094Z,47.70
2019-01-30T17:10:33.267Z,47.50
2019-01-30T17:13:04.708Z,47.50
2019-01-30T17:15:36.690Z,47.80
2019-01-30T17:18:09.789Z,47.80
2019-01-30T17:20:41.362Z,47.90
2019-01-30T17:23:12.538Z,48.10
2019-01-30T17:25:43.904Z,48.30
2019-01-30T17:28:17.105Z,48.80
2019-01-30T17:31:00.145Z,48.40
2019-01-30T17:33:31.800Z,48.70
2019-01-30T17:36:06.192Z,48.80
2019-01-30T17:38:39.589Z,48.70
2019-01-30T17:41:11.177Z,49.20
2019-01-30T17:43:44.629Z,49.10
2019-01-30T17:46:16.819Z,48.50
2019-01-30T17:48:48.860Z,48.20
2019-01-30T17:51:20.403Z,48.30
2019-01-30T17:53:51.753Z,48.50
2019-01-30T17:56:23.000Z,48.60
2019-01-30T17:58:54.376Z,48.70
2019-01-30T18:01:26.608Z,49.50
2019-01-30T18:03:58.567Z,48.80
2019-01-30T18:06:30.268Z,48.80
2019-01-30T18:09:01.926Z,48.80
2019-01-30T18:11:33.978Z,48.80
2019-01-30T18:14:08.239Z,48.90
2019-01-30T18:16:39.970Z,48.80
2019-01-30T18:19:11.287Z,48.80
2019-01-30T18:21:42.633Z,48.80
2019-01-30T18:24:14.316Z,48.70
2019-01-30T18:26:45.590Z,48.80
2019-01-30T18:29:17.563Z,48.80
2019-01-30T18:31:50.159Z,48.80
2019-01-30T18:34:24.238Z,48.70
2019-01-30T18:36:56.771Z,48.80
2019-01-30T18:39:28.642Z,48.70
2019-01-30T18:42:00.516Z,49.10
2019-01-30T18:44:33.192Z,49.80
2019-01-30T18:47:05.275Z,48.70
2019-01-30T18:49:37.602Z,47.90
2019-01-30T18:52:09.436Z,50.20
2019-01-30T18:54:41.337Z,49.50
2019-01-30T18:57:13.294Z,51.00
2019-01-30T18:59:45.481Z,49.50
2019-01-30T19:02:17.396Z,48.90
2019-01-30T19:04:49.527Z,48.80
2019-01-30T19:07:20.806Z,48.70
2019-01-30T19:09:52.077Z,48.70
2019-01-30T19:12:23.316Z,48.90
2019-01-30T19:14:54.495Z,48.70
2019-01-30T19:17:25.651Z,48.70
2019-01-30T19:19:56.889Z,48.60
2019-01-30T19:22:28.221Z,48.90
2019-01-30T19:24:59.754Z,49.10
2019-01-30T19:27:31.153Z,49.20
2019-01-30T19:30:04.414Z,49.20
2019-01-30T19:32:35.317Z,49.00
2019-01-30T19:35:06.614Z,48.90
2019-01-30T19:37:38.166Z,48.80
2019-01-30T19:40:09.561Z,48.90
2019-01-30T19:42:40.717Z,48.80
2019-01-30T19:45:14.163Z,49.00
2019-01-30T19:47:45.316Z,49.00
2019-01-30T19:50:25.376Z,48.60
2019-01-30T19:52:57.272Z,48.30
2019-01-30T19:55:28.165Z,48.30
2019-01-30T19:57:59.273Z,48.20
2019-01-30T20:00:40.267Z,48.20
2019-01-30T20:03:15.163Z,48.20
2019-01-30T20:05:46.456Z,48.90
2019-01-30T20:08:18.322Z,48.30
2019-01-30T20:10:50.618Z,48.30
2019-01-30T20:13:22.132Z,48.10
2019-01-30T20:15:53.291Z,48.30
2019-01-30T20:18:24.663Z,48.30
2019-01-30T20:20:55.631Z,48.40
2019-01-30T20:23:26.909Z,48.30
2019-01-30T20:25:58.054Z,48.30
2019-01-30T20:28:29.416Z,48.20
2019-01-30T20:31:01.282Z,48.40
2019-01-30T20:33:34.007Z,48.60
2019-01-30T20:36:05.442Z,48.40
2019-01-30T20:38:36.479Z,48.20
2019-01-30T20:41:07.628Z,48.00
2019-01-30T20:43:39.053Z,48.00
2019-01-30T20:46:10.263Z,48.20
2019-01-30T20:48:46.931Z,48.30
2019-01-30T20:51:16.809Z,48.30
2019-01-30T20:53:48.094Z,48.30
2019-01-30T20:56:18.999Z,48.10
2019-01-30T20:58:50.115Z,47.90
2019-01-30T21:01:21.201Z,47.90
2019-01-30T21:03:52.331Z,47.80
2019-01-30T21:06:23.655Z,47.80
2019-01-30T21:08:54.765Z,47.60
2019-01-30T21:11:25.986Z,47.60
2019-01-30T21:13:57.169Z,47.60
2019-01-30T21:16:28.312Z,47.40
2019-01-30T21:18:59.743Z,47.50
2019-01-30T21:21:30.882Z,47.40
2019-01-30T21:24:02.206Z,47.60
2019-01-30T21:26:33.735Z,47.40
2019-01-30T21:29:05.290Z,47.50
2019-01-30T21:31:36.349Z,47.60
2019-01-30T21:34:07.781Z,47.60
2019-01-30T21:36:38.964Z,47.60
2019-01-30T21:39:10.511Z,47.50
2019-01-30T21:41:43.109Z,47.40
2019-01-30T21:44:14.405Z,47.40
2019-01-30T21:46:45.527Z,47.40
2019-01-30T21:49:16.616Z,47.40
2019-01-30T21:51:47.816Z,47.30
2019-01-30T21:54:19.034Z,47.50
2019-01-30T21:56:50.266Z,47.70
2019-01-30T21:59:21.440Z,47.80
2019-01-30T22:01:52.876Z,47.80
2019-01-30T22:04:24.198Z,47.80
2019-01-30T22:06:55.555Z,47.60
2019-01-30T22:09:26.692Z,47.60
2019-01-30T22:11:57.669Z,48.00
2019-01-30T22:14:28.970Z,47.40
2019-01-30T22:16:59.925Z,47.40
2019-01-30T22:19:31.383Z,47.50
2019-01-30T22:22:02.498Z,47.40
2019-01-30T22:24:33.642Z,47.40
2019-01-30T22:27:04.787Z,47.30
2019-01-30T22:29:36.063Z,47.40
2019-01-30T22:32:07.342Z,47.30
2019-01-30T22:34:38.618Z,47.30
2019-01-30T22:37:09.854Z,47.30
2019-01-30T22:39:41.422Z,47.70
2019-01-30T22:42:14.066Z,48.10
2019-01-30T22:44:46.476Z,48.70
2019-01-30T22:47:18.145Z,48.90
2019-01-30T22:49:51.476Z,49.30
2019-01-30T22:52:23.715Z,51.00
2019-01-30T22:54:56.684Z,50.00
2019-01-30T22:57:28.548Z,49.70
2019-01-30T23:00:03.501Z,49.10
2019-01-30T23:02:36.318Z,48.90
2019-01-30T23:06:17.530Z,48.80
2019-01-30T23:09:13.547Z,48.60
2019-01-30T23:12:43.570Z,48.50
2019-01-30T23:15:32.950Z,48.40
2019-01-30T23:18:49.116Z,48.30
2019-01-30T23:21:44.928Z,48.30
2019-01-30T23:25:10.053Z,48.20
2019-01-30T23:27:57.691Z,48.10
2019-01-30T23:31:06.461Z,48.00
2019-01-30T23:34:21.193Z,48.00
2019-01-30T23:37:32.886Z,48.00
2019-01-30T23:41:01.026Z,47.90
2019-01-30T23:44:38.368Z,47.80
2019-01-30T23:48:05.860Z,47.80
2019-01-30T23:50:58.019Z,47.80
2019-01-30T23:54:25.842Z,47.80
2019-01-30T23:58:02.671Z,47.70
